createdAt,value
2017-06-26T00:00:09.326Z,66.90
2017-06-26T00:02:35.926Z,65.27
2017-06-26T00:05:02.736Z,66.87
2017-06-26T00:07:29.378Z,68.53
2017-06-26T00:10:00.907Z,66.33
2017-06-26T00:12:27.572Z,69.76
2017-06-26T00:14:54.459Z,66.05
2017-06-26T00:17:21.275Z,67.27
2017-06-26T00:19:47.873Z,69.27
2017-06-26T00:22:15.753Z,68.79
2017-06-26T00:24:52.391Z,68.59
2017-06-26T00:27:19.024Z,69.81
2017-06-26T00:29:51.592Z,68.70
2017-06-26T00:32:24.241Z,69.12
2017-06-26T00:34:51.251Z,69.05
2017-06-26T00:37:17.562Z,69.93
2017-06-26T00:39:44.006Z,69.95
2017-06-26T00:42:11.240Z,68.61
2017-06-26T00:44:38.020Z,70.04
2017-06-26T00:47:04.646Z,69.90
2017-06-26T00:49:31.530Z,71.56
2017-06-26T00:52:03.458Z,68.90
2017-06-26T00:54:38.111Z,68.36
2017-06-26T00:57:04.917Z,70.11
2017-06-26T00:59:31.280Z,70.59
2017-06-26T01:02:02.760Z,70.12
2017-06-26T01:04:29.546Z,71.33
2017-06-26T01:06:56.238Z,71.42
2017-06-26T01:09:22.891Z,70.73
2017-06-26T01:11:54.896Z,69.68
2017-06-26T01:14:21.620Z,70.62
2017-06-26T01:16:50.323Z,70.94
2017-06-26T01:19:22.589Z,70.04
2017-06-26T01:21:49.078Z,69.76
2017-06-26T01:24:15.637Z,68.59
2017-06-26T01:26:47.290Z,69.74
2017-06-26T01:29:14.553Z,71.71
2017-06-26T01:31:46.543Z,70.53
2017-06-26T01:34:13.803Z,69.19
2017-06-26T01:36:40.276Z,69.10
2017-06-26T01:39:06.686Z,69.71
2017-06-26T01:41:33.087Z,68.49
2017-06-26T01:43:59.629Z,69.37
2017-06-26T01:46:26.559Z,68.60
2017-06-26T01:48:53.553Z,68.93
2017-06-26T01:51:21.138Z,70.94
2017-06-26T01:53:52.959Z,69.13
2017-06-26T01:56:19.630Z,68.58
2017-06-26T01:58:53.071Z,69.25
2017-06-26T02:01:24.668Z,68.51
2017-06-26T02:03:51.394Z,70.61
2017-06-26T02:06:18.176Z,68.47
2017-06-26T02:08:45.309Z,70.21
2017-06-26T02:11:12.497Z,70.72
2017-06-26T02:13:40.098Z,70.36
2017-06-26T02:16:08.352Z,69.34
2017-06-26T08:09:08.580Z,75.29
2017-06-26T08:11:35.074Z,74.39
2017-06-26T08:14:01.418Z,74.31
2017-06-26T08:16:27.777Z,74.19
2017-06-26T08:18:54.159Z,74.46
2017-06-26T08:21:20.501Z,73.77
2017-06-26T08:23:46.841Z,73.30
2017-06-26T08:26:13.277Z,72.16
2017-06-26T08:28:39.610Z,70.87
2017-06-26T08:31:05.944Z,70.58
2017-06-26T08:33:32.284Z,70.15
2017-06-26T08:35:58.614Z,70.39
2017-06-26T08:38:24.974Z,69.75
2017-06-26T08:40:51.317Z,68.62
2017-06-26T08:43:17.660Z,65.92
2017-06-26T08:45:44.000Z,66.64
2017-06-26T08:48:10.351Z,65.38
2017-06-26T08:50:36.702Z,64.84
2017-06-26T08:53:03.042Z,63.64
2017-06-26T08:55:29.381Z,65.03
2017-06-26T08:57:55.712Z,63.64
2017-06-26T09:00:22.050Z,64.52
2017-06-26T09:02:48.399Z,65.00
2017-06-26T09:05:14.746Z,63.52
2017-06-26T09:07:41.084Z,64.40
2017-06-26T09:10:07.486Z,60.79
2017-06-26T09:12:33.835Z,60.37
2017-06-26T09:15:00.191Z,60.73
2017-06-26T09:17:26.544Z,61.24
2017-06-26T09:19:52.904Z,58.14
2017-06-26T09:22:19.244Z,57.07
2017-06-26T09:24:45.574Z,58.04
2017-06-26T09:27:11.912Z,55.94
2017-06-26T09:29:38.268Z,58.06
2017-06-26T09:32:04.621Z,57.79
2017-06-26T09:34:30.969Z,56.87
2017-06-26T11:46:35.357Z,38.91
2017-06-26T12:10:29.815Z,37.57
2017-06-26T12:12:56.132Z,37.84
2017-06-26T12:15:22.444Z,36.44
2017-06-26T12:17:48.787Z,35.73
2017-06-26T12:20:15.095Z,36.91
2017-06-26T12:22:41.436Z,36.80
2017-06-26T12:25:07.902Z,36.23
2017-06-26T12:27:34.196Z,37.96
2017-06-26T12:30:00.505Z,36.71
2017-06-26T12:32:26.854Z,37.73
2017-06-26T12:34:53.216Z,33.79
2017-06-26T12:37:19.527Z,35.18
2017-06-26T12:39:45.957Z,35.78
2017-06-26T12:42:12.347Z,36.48
2017-06-26T12:44:38.690Z,34.14
2017-06-26T12:47:05.023Z,36.34
2017-06-26T12:49:31.363Z,35.75
2017-06-26T12:51:57.670Z,36.43
2017-06-26T12:57:26.583Z,39.92
2017-06-26T13:05:15.202Z,36.20
2017-06-26T13:11:00.170Z,35.58
2017-06-26T13:13:32.375Z,35.08
2017-06-26T13:16:02.468Z,33.86
2017-06-26T13:21:24.745Z,34.61
2017-06-26T13:24:01.324Z,34.24
2017-06-26T13:26:36.325Z,34.85
2017-06-26T13:31:55.632Z,34.28
2017-06-26T13:34:22.132Z,33.17
2017-06-26T13:36:48.475Z,32.76
2017-06-26T13:39:14.826Z,32.33
2017-06-26T13:41:41.462Z,29.06
2017-06-26T13:44:07.821Z,33.04
2017-06-26T13:46:34.187Z,31.00
2017-06-26T13:49:00.553Z,31.24
2017-06-26T13:51:26.884Z,31.90
2017-06-26T13:53:53.239Z,31.95
2017-06-26T13:56:19.599Z,30.76
2017-06-26T13:58:45.959Z,29.00
2017-06-26T14:01:12.301Z,29.15
2017-06-26T14:03:38.902Z,28.45
2017-06-26T14:06:05.292Z,28.48
2017-06-26T14:08:31.634Z,28.88
2017-06-26T14:10:58.004Z,29.85
2017-06-26T14:13:24.388Z,28.87
2017-06-26T14:15:50.928Z,29.80
2017-06-26T14:18:17.301Z,29.63
2017-06-26T14:20:44.045Z,29.16
2017-06-26T14:23:10.461Z,30.46
2017-06-26T14:25:36.799Z,27.67
2017-06-26T14:28:03.148Z,28.09
2017-06-26T14:30:29.478Z,27.80
2017-06-26T14:32:55.820Z,29.52
2017-06-26T14:35:22.160Z,30.24
2017-06-26T14:37:48.516Z,28.11
2017-06-26T14:40:14.844Z,28.17
2017-06-26T14:42:41.147Z,30.31
2017-06-26T14:45:07.496Z,29.70
2017-06-26T14:47:33.921Z,28.98
2017-06-26T14:50:01.587Z,29.45
2017-06-26T14:52:27.999Z,29.60
2017-06-26T14:54:54.350Z,28.84
2017-06-26T14:57:20.691Z,29.07
2017-06-26T14:59:47.364Z,28.41
2017-06-26T15:02:13.756Z,28.09
2017-06-26T15:04:40.091Z,27.96
2017-06-26T15:07:06.704Z,27.30
2017-06-26T15:09:33.073Z,28.13
2017-06-26T15:11:59.448Z,29.72
2017-06-26T15:14:25.804Z,29.68
2017-06-26T15:16:52.188Z,29.53
2017-06-26T15:19:18.511Z,27.58
2017-06-26T15:21:44.853Z,28.58
2017-06-26T15:24:11.221Z,29.85
2017-06-26T15:26:37.598Z,30.20
2017-06-26T15:29:03.997Z,28.67
2017-06-26T15:31:30.354Z,29.87
2017-06-26T15:33:56.697Z,29.69
2017-06-26T15:36:23.062Z,29.41
2017-06-26T15:38:49.408Z,28.30
2017-06-26T15:41:15.750Z,29.27
2017-06-26T15:43:42.125Z,29.18
2017-06-26T15:46:08.467Z,29.32
2017-06-26T15:48:34.823Z,29.73
2017-06-26T15:51:01.173Z,30.11
2017-06-26T15:53:27.537Z,28.17
2017-06-26T15:55:53.911Z,30.48
2017-06-26T15:58:20.307Z,29.96
2017-06-26T16:00:46.818Z,31.21
2017-06-26T16:03:15.365Z,30.19
2017-06-26T16:05:42.885Z,29.93
2017-06-26T16:08:09.293Z,28.74
2017-06-26T16:10:35.612Z,28.89
2017-06-26T16:13:02.000Z,29.21
2017-06-26T16:15:28.423Z,29.30
2017-06-26T16:17:54.816Z,30.22
2017-06-26T16:20:21.185Z,29.47
2017-06-26T16:22:47.546Z,31.11
2017-06-26T16:25:13.887Z,29.47
2017-06-26T16:27:40.272Z,28.44
2017-06-26T16:30:06.641Z,29.71
2017-06-26T16:32:32.979Z,28.79
2017-06-26T16:34:59.348Z,29.10
2017-06-26T16:37:25.744Z,29.87
2017-06-26T16:39:52.114Z,28.53
2017-06-26T16:42:18.498Z,29.28
2017-06-26T16:44:47.775Z,30.29
2017-06-26T16:47:14.271Z,29.32
2017-06-26T16:49:40.626Z,30.07
2017-06-26T16:52:07.031Z,29.01
2017-06-26T16:54:33.382Z,30.35
2017-06-26T16:56:59.758Z,29.45
2017-06-26T18:17:01.675Z,34.64
2017-06-26T18:19:28.041Z,34.40
2017-06-26T18:21:54.372Z,35.13
2017-06-26T18:24:20.723Z,35.31
2017-06-26T18:26:47.084Z,35.41
2017-06-26T18:29:13.437Z,35.84
2017-06-26T18:31:39.812Z,35.27
2017-06-26T18:34:06.197Z,35.59
2017-06-26T18:36:32.515Z,36.58
2017-06-26T18:38:58.890Z,38.10
2017-06-26T18:41:25.227Z,37.31
2017-06-26T18:43:51.572Z,38.07
2017-06-26T18:46:17.933Z,39.33
2017-06-26T18:48:44.274Z,39.41
2017-06-26T18:51:10.668Z,39.53
2017-06-26T18:53:37.016Z,39.82
2017-06-26T18:56:03.356Z,40.29
2017-06-26T18:58:29.707Z,40.23
2017-06-26T19:00:56.034Z,39.70
2017-06-26T19:03:22.414Z,40.30
2017-06-26T19:05:48.799Z,40.81
2017-06-26T19:08:15.147Z,40.52
2017-06-26T19:10:41.494Z,40.22
2017-06-26T19:13:07.875Z,40.45
2017-06-26T19:15:34.210Z,42.19
2017-06-26T19:18:00.673Z,42.76
2017-06-26T19:20:27.055Z,43.81
2017-06-26T19:22:53.409Z,43.32
2017-06-26T19:25:19.752Z,43.10
2017-06-26T19:27:46.314Z,43.77
2017-06-26T19:30:12.651Z,42.93
2017-06-26T19:32:39.073Z,43.47
2017-06-26T19:35:05.441Z,44.21
2017-06-26T19:37:31.802Z,44.44
2017-06-26T19:39:58.179Z,43.03
2017-06-26T19:42:24.533Z,42.53
2017-06-26T19:44:51.042Z,43.63
2017-06-26T19:47:17.394Z,43.53
2017-06-26T19:49:46.079Z,44.41
2017-06-26T19:52:12.667Z,43.57
2017-06-26T19:54:39.187Z,44.50
2017-06-26T19:57:05.517Z,43.96
2017-06-26T19:59:31.830Z,44.60
2017-06-26T20:01:58.376Z,43.37
2017-06-26T20:04:24.711Z,43.85
2017-06-26T20:06:51.154Z,44.33
2017-06-26T20:09:17.498Z,44.44
2017-06-26T20:11:43.903Z,44.83
2017-06-26T20:14:10.247Z,45.21
2017-06-26T20:16:36.606Z,44.81
2017-06-26T20:19:02.938Z,45.85
2017-06-26T20:21:29.307Z,45.28
2017-06-26T20:23:55.660Z,45.90
2017-06-26T20:26:21.990Z,47.25
2017-06-26T20:28:48.313Z,46.62
2017-06-26T20:31:14.672Z,46.39
2017-06-26T20:33:41.020Z,46.70
2017-06-26T20:36:07.369Z,46.94
2017-06-26T20:38:33.684Z,48.31
2017-06-26T20:41:00.019Z,47.53
2017-06-26T20:43:26.364Z,46.92
2017-06-26T20:45:52.723Z,47.22
2017-06-26T20:48:19.070Z,46.62
2017-06-26T20:50:46.169Z,47.77
2017-06-26T20:53:12.715Z,48.88
2017-06-26T20:55:39.044Z,47.88
2017-06-26T20:58:05.486Z,48.32
2017-06-26T21:00:31.847Z,47.17
2017-06-26T21:02:58.187Z,46.93
2017-06-26T21:05:24.503Z,50.11
2017-06-26T21:07:50.877Z,51.10
2017-06-26T21:10:17.209Z,53.66
2017-06-26T21:12:43.506Z,54.84
2017-06-26T21:15:09.865Z,54.12
2017-06-26T21:17:36.206Z,54.63
2017-06-26T21:20:02.614Z,53.98
2017-06-26T21:22:28.948Z,56.30
2017-06-26T21:24:55.306Z,56.35
2017-06-26T21:27:21.711Z,55.98
2017-06-26T21:29:48.036Z,54.56
2017-06-26T21:32:14.411Z,49.94
2017-06-26T21:34:40.756Z,50.19
2017-06-26T21:37:07.095Z,54.44
2017-06-26T21:39:33.461Z,55.92
2017-06-26T21:41:59.804Z,56.46
2017-06-26T21:44:26.134Z,57.87
2017-06-26T21:46:52.524Z,57.56
2017-06-26T21:49:18.875Z,56.07
2017-06-26T21:51:45.227Z,52.23
2017-06-26T21:54:11.666Z,50.53
2017-06-26T21:56:38.006Z,51.81
2017-06-26T21:59:04.335Z,51.89
2017-06-26T22:01:31.131Z,52.25
2017-06-26T22:03:57.544Z,55.92
2017-06-26T22:06:24.548Z,59.27
2017-06-26T22:08:50.919Z,59.51
2017-06-26T22:11:17.266Z,58.71
2017-06-26T22:13:43.619Z,59.72
2017-06-26T22:16:09.974Z,58.44
2017-06-26T22:18:36.355Z,60.05
2017-06-26T22:21:02.716Z,58.83
2017-06-26T22:23:29.058Z,59.38
2017-06-26T22:25:55.395Z,60.07
2017-06-26T22:28:21.790Z,58.95
2017-06-26T22:30:48.177Z,57.54
2017-06-26T22:33:14.522Z,56.20
2017-06-26T22:35:40.872Z,55.92
2017-06-26T22:38:07.284Z,55.60
2017-06-26T22:43:29.877Z,55.95
2017-06-26T22:45:56.655Z,56.19
2017-06-26T22:48:24.241Z,56.37
2017-06-26T22:50:51.839Z,56.43
2017-06-26T22:53:19.197Z,57.32
2017-06-26T22:55:46.750Z,56.41
2017-06-26T22:58:13.335Z,58.37
2017-06-26T23:00:41.856Z,57.36
2017-06-26T23:03:09.102Z,58.32
2017-06-26T23:05:36.155Z,58.43
2017-06-26T23:08:03.648Z,57.34
2017-06-26T23:10:31.094Z,58.52
2017-06-26T23:13:03.582Z,58.80
2017-06-26T23:15:30.980Z,58.91
2017-06-26T23:17:57.638Z,58.57
2017-06-26T23:20:27.395Z,59.51
2017-06-26T23:22:54.198Z,58.85
2017-06-26T23:25:21.765Z,59.23
2017-06-26T23:27:49.569Z,61.58
2017-06-26T23:30:17.829Z,61.57
2017-06-26T23:32:46.424Z,63.06
2017-06-26T23:35:14.303Z,63.31
2017-06-26T23:37:41.986Z,60.59
2017-06-26T23:40:09.026Z,58.25
2017-06-26T23:42:41.873Z,59.68
2017-06-26T23:45:09.917Z,60.71
2017-06-26T23:47:37.798Z,63.78
2017-06-26T23:50:05.651Z,61.68
2017-06-26T23:52:33.582Z,62.14
2017-06-26T23:55:00.138Z,60.94
2017-06-26T23:57:28.254Z,60.44
2017-06-26T23:59:55.652Z,62.43
